Montezuma, Georgia
Current Conditions -  °F | °C
As of 5:15 AM on Saturday 20 Dec 2014 (Local Time) from KACJ Reporting Station
Drizzle Drizzle  
Wind Chill: 45°   Ceiling: 3200
Heat Index: 45°   Visibility: 7mi
Dew Point: 45°   Wind: 0mph
Humidity: 100%   Direction: NA
Pressure: 30.13"   Gusts: NA
Location:  32.31°N, 84.03°W
Report Text: KACJ 201015Z AUTO 00000KT 7SM DZ OVC032 07/07 A3013 RMK AO2
Loading
Personal Weather Stations






























Interactive Weather Map New forecast layout! Learn more

10-Day Weather Forecast

Advertisements
Track Severe Weather on mobile